Terminal Aerodrome Forecast
Issued by NWS

Home | Current Version | Previous Version | Text Only | Print | Product List | Glossary On
Versions: 1 2 3 4 5 6 7 8 9 10 11 12 13 14 15 16 17
000
FTUS41 KGYX 140900 AAA
TAFPSM
TAF AMD
KPSM 140921Z 1409/1506 19007KT 6SM BR VCSH BKN015 BKN070
     FM141200 23008KT P6SM SCT050
     FM141800 18010KT P6SM BKN050
     FM150400 18005KT 6SM SHRA BR OVC035=

USA.gov is the U.S. government's official web portal to all federal, state and local government web resources and services.